Latest Weather Observations for Maroochydore

IDQ60901

Issued at 11:25 pm EST Saturday 23 August 2014 (issued every 10 minutes, with the page automatically refreshed every 10 minutes)

About weather observations | Map of Brisbane area stations | Latest observations for Brisbane area | Other Formats
Station Details ID: 040861 Name: SUNSHINE COAST AIRPORT Lat: -26.60 Lon: 153.09 Height: 3.3 m
Data from the previous 72 hours. | See also: Recent months at Maroochydore
Date/Time
EST
Tmp

°C
App
Tmp
°C
Dew
Point
°C
Rel
Hum
%
Delta-T

°C
Wind Press
QNH
hPa
Press
MSL
hPa
Rain
since
9 am
mm
Dir
 
Spd
km/h
Gust
km/h
Spd
kts
Gust
kts
23/11:00pm 14.6 11.1 12.1 85 1.4 SSW 22 30 12 16 1022.6 - 36.8
23/10:30pm 14.4 10.1 12.1 86 1.2 SSW 26 37 14 20 1022.4 - 36.8
23/10:00pm 14.4 9.8 12.4 88 1.1 S 28 39 15 21 1022.3 - 36.8
23/09:30pm 14.4 10.4 13.0 91 0.8 SSW 26 35 14 19 1022.4 - 36.8
23/09:00pm 14.5 10.6 13.2 92 0.7 SSW 26 35 14 19 1022.4 1022.4 36.8
23/08:30pm 14.6 11.2 13.6 94 0.6 S 24 35 13 19 1022.5 - 36.6
23/08:10pm 14.6 10.4 13.6 94 0.6 S 28 39 15 21 1022.5 - 36.6
23/08:00pm 14.7 10.6 13.7 94 0.6 S 28 41 15 22 1022.6 - 36.6
23/07:47pm 14.7 11.0 13.9 95 0.4 S 26 39 14 21 1022.8 - 36.2
23/07:46pm 14.8 11.1 14.0 95 0.4 S 26 39 14 21 1022.8 - 36.2
23/07:34pm 14.9 11.6 14.1 95 0.5 S 24 35 13 19 1022.6 - 36.0
23/07:30pm 14.9 12.0 14.1 95 0.5 S 22 32 12 17 1022.6 - 36.0
23/07:29pm 14.9 12.0 14.1 95 0.5 S 22 32 12 17 1022.6 - 36.0
23/07:21pm 14.9 11.6 13.9 94 0.6 S 24 32 13 17 1022.6 - 35.4
23/07:16pm 15.0 11.8 14.2 95 0.5 S 24 32 13 17 1022.5 - 35.4
23/07:05pm 14.9 11.3 14.1 95 0.5 S 26 35 14 19 1022.4 - 35.4
23/07:03pm 14.9 11.2 13.9 94 0.6 S 26 35 14 19 1022.3 - 35.2
23/07:00pm 14.9 10.8 13.9 94 0.6 S 28 35 15 19 1022.4 - 35.2
23/06:47pm 15.0 11.0 14.0 94 0.6 S 28 46 15 25 1022.2 - 34.8
23/06:38pm 15.1 11.1 14.1 94 0.6 S 28 35 15 19 1022.0 - 34.6
23/06:30pm 15.2 11.6 14.2 94 0.6 S 26 35 14 19 1022.0 - 34.6
23/06:26pm 15.2 11.7 14.4 95 0.5 S 26 35 14 19 1022.0 - 34.6
23/06:23pm 15.3 11.4 14.5 95 0.5 S 28 35 15 19 1021.9 - 34.6
23/06:00pm 15.0 10.6 14.0 94 0.6 S 30 39 16 21 1021.8 1021.8 33.6
23/05:45pm 15.1 11.8 14.1 94 0.6 S 24 35 13 19 1021.5 - 31.2
23/05:33pm 15.2 12.0 14.2 94 0.6 S 24 35 13 19 1021.3 - 29.8
23/05:30pm 15.3 11.7 14.3 94 0.6 S 26 35 14 19 1021.2 - 29.8
23/05:27pm 15.3 11.7 14.3 94 0.6 S 26 35 14 19 1021.2 - 29.6
23/05:15pm 15.3 12.1 14.3 94 0.6 S 24 33 13 18 1021.2 - 29.2
23/05:12pm 15.2 11.6 14.2 94 0.6 S 26 33 14 18 1021.2 - 29.0
23/05:02pm 15.2 12.0 14.2 94 0.6 S 24 32 13 17 1021.1 - 28.2
23/05:01pm 15.2 12.0 14.2 94 0.6 S 24 32 13 17 1021.1 - 28.2
23/05:00pm 15.2 11.9 14.1 93 0.6 S 24 32 13 17 1021.1 - 28.2
23/04:30pm 15.5 11.6 14.4 93 0.6 S 28 39 15 21 1020.6 - 27.6
23/04:00pm 15.7 11.9 14.6 93 0.6 S 28 37 15 20 1020.3 - 27.6
23/03:30pm 15.8 11.7 14.8 94 0.6 S 30 41 16 22 1020.3 - 27.6
23/03:28pm 15.7 11.5 14.7 94 0.6 S 30 41 16 22 1020.4 - 27.6
23/03:27pm 15.8 11.7 14.8 94 0.6 S 30 41 16 22 1020.4 - 27.6
23/03:00pm 16.0 12.3 15.0 94 0.6 SSE 28 43 15 23 1020.3 1020.3 26.2
23/02:44pm 15.9 12.9 14.9 94 0.6 SSE 24 41 13 22 1020.3 - 24.2
23/02:39pm 16.0 13.0 14.9 93 0.6 S 24 32 13 17 1020.4 - 23.0
23/02:30pm 16.3 13.4 15.2 93 0.6 S 24 32 13 17 1020.4 - 21.8
23/02:15pm 16.2 12.5 15.1 93 0.6 S 28 37 15 20 1020.3 - 21.6
23/02:01pm 16.3 12.7 15.3 94 0.6 S 28 39 15 21 1020.3 - 21.4
23/02:00pm 16.3 13.1 15.3 94 0.6 S 26 39 14 21 1020.3 - 21.4
23/01:51pm 16.2 12.6 15.2 94 0.6 S 28 35 15 19 1020.4 - 21.0
23/01:42pm 15.8 12.3 14.5 92 0.7 S 26 35 14 19 1020.5 - 20.6
23/01:30pm 16.3 13.0 15.0 92 0.8 S 26 33 14 18 1020.4 - 20.2
23/01:21pm 16.2 12.4 14.7 91 0.9 SSE 28 39 15 21 1020.2 - 20.0
23/01:00pm 15.9 12.8 14.4 91 0.9 SSE 24 35 13 19 1020.5 - 19.0
23/12:58pm 15.8 12.2 14.3 91 0.9 SSE 26 41 14 22 1020.6 - 18.8
23/12:43pm 16.5 13.8 15.5 94 0.6 S 24 39 13 21 1020.7 - 17.4
23/12:38pm 16.4 12.8 15.3 93 0.6 S 28 39 15 21 1020.6 - 16.4
23/12:30pm 16.5 13.0 15.4 93 0.6 S 28 37 15 20 1020.5 - 15.8
23/12:01pm 16.6 12.7 15.5 93 0.6 S 30 41 16 22 1020.4 - 15.4
23/12:00pm 16.7 12.9 15.7 94 0.6 S 30 41 16 22 1020.4 1020.4 15.4
23/11:35am 16.1 11.6 14.8 92 0.7 S 32 41 17 22 1021.1 - 14.8
23/11:30am 16.0 11.2 14.7 92 0.7 SSE 33 50 18 27 1021.2 - 14.8
23/11:25am 15.9 10.7 14.6 92 0.7 SSE 35 50 19 27 1021.3 - 14.6
23/11:21am 16.2 12.2 15.1 93 0.6 SSE 30 48 16 26 1021.4 - 14.4
23/11:15am 16.6 13.9 15.6 94 0.6 S 24 35 13 19 1021.3 - 14.4
23/11:00am 16.1 12.9 15.3 95 0.5 S 26 33 14 18 1021.5 - 14.4
23/10:59am 16.0 12.8 15.2 95 0.5 S 26 33 14 18 1021.5 - 14.4
23/10:41am 15.6 12.6 14.8 95 0.5 S 24 33 13 18 1021.4 - 13.8
23/10:30am 15.6 11.5 14.8 95 0.5 S 30 39 16 21 1021.6 - 13.6
23/10:00am 14.7 10.6 13.9 95 0.4 S 28 39 15 21 1021.6 - 10.2
23/09:30am 14.4 9.3 13.6 95 0.4 S 33 48 18 26 1021.8 - 5.8
23/09:00am 14.4 9.5 13.6 95 0.4 S 32 41 17 22 1021.6 1021.6 65.2
23/08:47am 14.4 10.2 13.6 95 0.4 SSW 28 39 15 21 1021.6 - 62.4
23/08:31am 14.2 8.9 13.2 94 0.6 S 33 46 18 25 1021.5 - 59.4
23/08:30am 14.3 9.1 13.3 94 0.6 S 33 46 18 25 1021.5 - 59.2
23/08:28am 14.3 9.1 13.3 94 0.6 S 33 46 18 25 1021.4 - 59.0
23/08:26am 14.3 9.1 13.3 94 0.6 S 33 46 18 25 1021.3 - 58.8
23/08:14am 14.3 9.1 13.3 94 0.6 S 33 52 18 28 1021.4 - 58.4
23/08:08am 14.2 9.1 13.2 94 0.6 SSW 32 52 17 28 1021.2 - 58.0
23/08:00am 14.2 9.9 13.2 94 0.6 SSW 28 39 15 21 1021.1 - 57.6
23/07:42am 14.1 8.8 13.1 94 0.6 SSW 33 44 18 24 1021.2 - 56.0
23/07:30am 14.1 8.8 13.0 93 0.6 SSW 33 46 18 25 1021.0 - 55.2
23/07:24am 14.1 9.4 13.1 94 0.6 SSW 30 43 16 23 1021.0 - 55.0
23/07:08am 14.0 9.3 13.1 94 0.5 SSW 30 48 16 26 1020.7 - 54.6
23/07:00am 14.0 9.3 13.1 94 0.5 SSW 30 46 16 25 1020.6 - 54.2
23/06:30am 14.0 8.9 13.1 94 0.5 SSW 32 41 17 22 1020.6 - 53.0
23/06:17am 14.1 9.0 13.1 94 0.6 S 32 46 17 25 1020.7 - 52.6
23/06:00am 14.2 9.5 13.1 93 0.6 S 30 48 16 26 1020.4 1020.4 51.8
23/05:59am 14.2 9.5 13.1 93 0.6 S 30 48 16 26 1020.4 - 51.8
23/05:40am 14.0 10.0 12.9 93 0.6 SSW 26 35 14 19 1020.4 - 51.2
23/05:30am 14.1 9.3 13.0 93 0.6 SSW 30 39 16 21 1020.3 - 51.0
23/05:19am 14.1 9.4 13.1 94 0.6 SSW 30 43 16 23 1020.1 - 50.8
23/05:00am 14.0 8.9 13.1 94 0.5 S 32 44 17 24 1020.1 - 50.2
23/04:49am 14.1 9.4 13.1 94 0.6 S 30 41 16 22 1020.0 - 49.2
23/04:43am 14.1 9.3 13.0 93 0.6 SSW 30 41 16 22 1019.9 - 48.8
23/04:30am 13.9 8.8 13.0 94 0.5 S 32 44 17 24 1019.8 - 48.2
23/04:22am 14.0 8.3 12.9 93 0.6 S 35 46 19 25 1019.8 - 47.6
23/04:03am 14.1 8.0 13.0 93 0.6 S 37 56 20 30 1019.6 - 46.6
23/04:00am 14.1 7.6 13.0 93 0.6 S 39 56 21 30 1019.7 - 46.4
23/03:57am 14.2 7.8 13.1 93 0.6 S 39 56 21 30 1019.8 - 46.4
23/03:46am 14.3 8.3 13.2 93 0.6 S 37 52 20 28 1019.9 - 45.8
23/03:30am 14.3 8.7 13.2 93 0.6 S 35 44 19 24 1019.9 - 45.0
23/03:00am 14.2 8.5 13.1 93 0.6 S 35 46 19 25 1020.3 1020.3 44.0
23/02:30am 14.3 9.0 13.2 93 0.6 S 33 43 18 23 1020.8 - 43.2
23/02:00am 14.3 10.0 13.3 94 0.6 SSW 28 35 15 19 1021.5 - 41.4
23/01:30am 14.2 10.6 13.2 94 0.6 SSW 24 32 13 17 1021.8 - 40.0
23/01:17am 14.3 10.4 13.3 94 0.6 SSW 26 35 14 19 1022.0 - 39.0
23/01:00am 14.4 10.9 13.4 94 0.6 SSW 24 35 13 19 1022.2 - 37.6
23/12:59am 14.4 10.9 13.4 94 0.6 SSW 24 35 13 19 1022.3 - 37.6
23/12:30am 14.3 10.0 13.3 94 0.6 SSW 28 44 15 24 1022.3 - 37.0
23/12:00am 14.3 10.0 13.3 94 0.6 SSW 28 39 15 21 1022.3 1022.3 36.2
 
Date/Time
EST
Tmp

°C
App
Tmp
°C
Dew
Point
°C
Rel
Hum
%
Delta-T

°C
Wind Press
QNH
hPa
Press
MSL
hPa
Rain
since
9 am
mm
Dir
 
Spd
km/h
Gust
km/h
Spd
kts
Gust
kts
22/11:51pm 14.3 10.4 13.3 94 0.6 SSW 26 39 14 21 1022.4 - 35.8
22/11:30pm 14.2 11.4 13.2 94 0.6 SSW 20 30 11 16 1022.8 - 34.6
22/11:00pm 14.3 11.6 13.5 95 0.4 SSW 20 32 11 17 1022.7 - 33.4
22/10:55pm 14.3 11.6 13.5 95 0.4 SSW 20 32 11 17 1022.7 - 33.2
22/10:53pm 14.3 11.6 13.5 95 0.4 SSW 20 32 11 17 1022.7 - 33.2
22/10:33pm 14.3 10.8 13.3 94 0.6 SSW 24 33 13 18 1022.8 - 32.4
22/10:30pm 14.3 11.2 13.3 94 0.6 SSW 22 33 12 18 1022.8 - 32.2
22/10:00pm 14.3 10.4 13.3 94 0.6 SSW 26 33 14 18 1023.0 - 31.6
22/09:30pm 14.3 10.8 13.3 94 0.6 SSW 24 32 13 17 1023.5 - 31.2
22/09:00pm 14.5 11.4 13.4 93 0.6 S 22 33 12 18 1023.7 1023.7 30.2
22/08:30pm 14.6 11.1 13.5 93 0.6 S 24 33 13 18 1023.6 - 30.2
22/08:00pm 14.8 11.4 13.7 93 0.6 S 24 35 13 19 1023.5 - 29.6
22/07:30pm 15.2 12.0 14.2 94 0.6 S 24 32 13 17 1023.2 - 29.2
22/07:11pm 15.3 12.9 14.3 94 0.6 SSW 20 32 11 17 1023.3 - 28.6
22/07:00pm 15.2 12.7 14.2 94 0.6 S 20 26 11 14 1023.3 - 28.2
22/06:55pm 15.3 13.1 14.3 94 0.6 S 19 26 10 14 1023.5 - 27.8
22/06:30pm 15.3 12.5 14.2 93 0.6 SSW 22 28 12 15 1023.0 - 26.2
22/06:00pm 15.4 13.2 14.3 93 0.6 S 19 26 10 14 1022.5 1022.5 26.0
22/05:30pm 15.5 12.4 14.4 93 0.6 S 24 30 13 16 1022.6 - 25.8
22/05:00pm 15.8 13.5 14.7 93 0.6 S 20 26 11 14 1022.8 - 25.4
22/04:30pm 16.0 14.0 14.9 93 0.6 S 19 24 10 13 1022.4 - 25.0
22/04:28pm 16.0 14.4 14.9 93 0.6 S 17 24 9 13 1022.3 - 25.0
22/04:26pm 16.0 14.4 14.9 93 0.6 S 17 24 9 13 1022.2 - 24.8
22/04:00pm 15.8 14.5 14.7 93 0.6 S 15 22 8 12 1022.2 - 22.4
22/03:52pm 15.8 14.5 14.7 93 0.6 SE 15 22 8 12 1022.0 - 20.8
22/03:50pm 15.9 14.2 14.8 93 0.6 SE 17 22 9 12 1022.2 - 20.0
22/03:39pm 16.1 13.9 14.8 92 0.7 S 20 28 11 15 1021.8 - 17.4
22/03:30pm 16.1 14.9 15.0 93 0.6 S 15 20 8 11 1021.9 - 17.0
22/03:00pm 15.8 16.0 14.7 93 0.6 S 7 11 4 6 1022.1 1022.1 13.4
22/02:57pm 15.8 16.0 14.7 93 0.6 S 7 11 4 6 1022.1 - 13.0
22/02:38pm 15.7 14.3 14.6 93 0.6 S 15 20 8 11 1022.2 - 12.0
22/02:30pm 15.7 14.3 14.6 93 0.6 SSE 15 20 8 11 1022.2 - 11.6
22/02:28pm 15.7 14.3 14.6 93 0.6 SSE 15 20 8 11 1022.2 - 11.6
22/02:26pm 15.8 14.5 14.7 93 0.6 SSE 15 20 8 11 1022.3 - 11.6
22/02:02pm 15.6 12.7 14.0 90 0.9 SE 22 30 12 16 1022.4 - 10.4
22/02:00pm 15.7 12.9 14.2 91 0.9 SE 22 26 12 14 1022.4 - 10.4
22/01:42pm 15.7 13.9 14.4 92 0.7 S 17 20 9 11 1022.7 - 9.6
22/01:38pm 15.7 13.8 14.2 91 0.9 S 17 22 9 12 1022.7 - 9.2
22/01:30pm 15.8 13.9 14.3 91 0.9 SSE 17 30 9 16 1022.9 - 8.8
22/01:00pm 15.8 15.5 14.5 92 0.7 SSE 9 13 5 7 1023.3 - 7.4
22/12:45pm 16.0 14.7 14.7 92 0.7 S 15 20 8 11 1023.3 - 6.8
22/12:30pm 16.4 15.2 15.1 92 0.8 S 15 20 8 11 1023.2 - 6.4
22/12:00pm 16.3 14.6 14.8 91 0.9 S 17 24 9 13 1023.9 1023.9 6.0
22/11:30am 16.8 13.9 14.1 84 1.5 SE 22 30 12 16 1024.3 - 5.4
22/11:00am 16.8 14.2 14.8 88 1.2 SE 22 35 12 19 1024.7 - 5.4
22/10:30am 16.7 12.7 15.1 90 0.9 SE 30 37 16 20 1025.0 - 5.0
22/10:20am 16.3 11.9 14.1 87 1.2 SE 30 39 16 21 1025.2 - 5.0
22/10:00am 15.2 12.7 14.2 94 0.6 S 20 28 11 15 1025.3 - 4.6
22/09:56am 15.2 12.0 14.2 94 0.6 S 24 30 13 16 1025.4 - 4.4
22/09:50am 15.2 11.6 14.1 93 0.6 S 26 37 14 20 1025.3 - 4.2
22/09:30am 15.0 13.4 13.9 93 0.6 S 15 20 8 11 1025.4 - 2.8
22/09:28am 15.1 13.5 14.0 93 0.6 S 15 20 8 11 1025.3 - 2.2
22/09:00am 15.1 12.8 14.0 93 0.6 SSW 19 26 10 14 1025.0 1025.0 18.8
22/08:30am 15.2 13.6 13.9 92 0.7 SSW 15 19 8 10 1025.0 - 18.2
22/08:00am 15.7 13.2 14.2 91 0.9 S 20 28 11 15 1024.6 - 18.0
22/07:30am 15.5 13.4 13.7 89 1.0 S 17 28 9 15 1024.0 - 18.0
22/07:00am 16.6 13.6 14.8 89 1.0 SSE 24 39 13 21 1023.8 - 18.0
22/06:40am 16.5 11.9 14.7 89 1.0 SE 32 41 17 22 1023.6 - 18.0
22/06:30am 16.1 11.3 14.5 90 0.9 SE 33 43 18 23 1023.7 - 18.0
22/06:13am 13.9 11.0 13.0 94 0.5 S 20 28 11 15 1023.6 - 17.6
22/06:09am 13.8 10.5 12.9 94 0.5 S 22 30 12 16 1023.6 - 17.2
22/06:01am 13.7 10.0 12.8 94 0.5 S 24 30 13 16 1023.4 - 17.0
22/06:00am 13.7 10.0 12.8 94 0.5 S 24 30 13 16 1023.3 1023.3 17.0
22/05:30am 13.8 9.6 12.5 92 0.7 S 26 33 14 18 1023.0 - 14.4
22/05:17am 13.9 9.4 12.6 92 0.7 S 28 35 15 19 1022.9 - 14.2
22/05:00am 13.7 9.9 12.4 92 0.7 S 24 32 13 17 1022.7 - 13.8
22/04:55am 13.8 10.4 12.4 91 0.8 S 22 30 12 16 1022.7 - 12.8
22/04:53am 13.9 10.5 12.5 91 0.8 S 22 30 12 16 1022.8 - 12.4
22/04:35am 14.1 11.1 12.7 91 0.8 S 20 32 11 17 1022.7 - 11.2
22/04:30am 14.2 11.3 12.8 91 0.8 SSW 20 32 11 17 1022.6 - 10.0
22/04:11am 14.1 10.3 12.5 90 0.9 SSW 24 33 13 18 1022.4 - 10.0
22/04:00am 14.2 10.5 12.6 90 0.9 SSW 24 35 13 19 1022.1 - 10.0
22/03:52am 14.1 10.3 12.5 90 0.9 S 24 32 13 17 1022.3 - 9.2
22/03:30am 14.3 11.5 12.5 89 1.0 S 19 24 10 13 1022.3 - 7.8
22/03:00am 14.5 10.4 12.7 89 1.0 SSW 26 37 14 20 1022.4 1022.4 7.8
22/02:30am 15.2 11.4 12.5 84 1.5 S 24 35 13 19 1022.8 - 7.2
22/02:00am 15.3 12.3 12.4 83 1.6 S 20 28 11 15 1023.1 - 7.2
22/01:30am 15.2 11.5 12.7 85 1.4 S 24 30 13 16 1022.9 - 7.2
22/01:00am 15.3 11.3 13.0 86 1.3 SSW 26 35 14 19 1022.8 - 7.2
22/12:30am 15.3 12.5 13.3 88 1.1 SSW 20 30 11 16 1023.1 - 7.2
22/12:00am 15.7 12.6 13.5 87 1.2 SSW 22 32 12 17 1023.2 1023.2 7.2
 
Date/Time
EST
Tmp

°C
App
Tmp
°C
Dew
Point
°C
Rel
Hum
%
Delta-T

°C
Wind Press
QNH
hPa
Press
MSL
hPa
Rain
since
9 am
mm
Dir
 
Spd
km/h
Gust
km/h
Spd
kts
Gust
kts
21/11:30pm 16.2 11.4 13.9 86 1.3 S 32 50 17 27 1023.1 - 7.2
21/11:24pm 16.3 11.5 14.0 86 1.3 SSE 32 50 17 27 1023.0 - 7.2
21/11:00pm 16.2 11.3 14.4 89 1.0 SSE 33 46 18 25 1023.1 - 7.2
21/10:52pm 16.3 12.5 14.8 91 0.9 S 28 46 15 25 1023.1 - 7.2
21/10:33pm 15.4 11.8 14.3 93 0.6 S 26 37 14 20 1023.2 - 7.0
21/10:30pm 15.4 11.5 14.3 93 0.6 S 28 41 15 22 1023.2 - 7.0
21/10:12pm 15.7 10.5 14.4 92 0.7 SSE 35 54 19 29 1023.2 - 6.0
21/10:10pm 15.7 10.5 14.4 92 0.7 SSE 35 54 19 29 1023.2 - 6.0
21/10:00pm 16.1 11.0 14.8 92 0.7 SSE 35 48 19 26 1023.2 - 5.2
21/09:48pm 15.7 11.0 14.4 92 0.7 S 32 43 17 23 1023.2 - 5.0
21/09:40pm 15.7 11.1 14.6 93 0.6 S 32 44 17 24 1023.0 - 4.8
21/09:30pm 15.6 9.6 14.5 93 0.6 SSE 39 59 21 32 1023.1 - 4.4
21/09:24pm 15.7 10.5 14.4 92 0.7 SSE 35 59 19 32 1023.2 - 3.8
21/09:19pm 16.1 11.6 14.8 92 0.7 SSE 32 50 17 27 1023.2 - 3.2
21/09:02pm 16.0 11.6 14.2 89 1.0 S 30 46 16 25 1023.2 - 1.4
21/09:01pm 16.2 12.2 14.2 88 1.1 S 28 46 15 25 1023.2 - 1.2
21/09:00pm 16.3 12.7 14.3 88 1.1 S 26 43 14 23 1023.2 1023.2 0.8
21/08:40pm 16.5 13.8 14.5 88 1.1 S 22 30 12 16 1022.9 - 0.0
21/08:30pm 16.4 13.6 14.2 87 1.3 S 22 30 12 16 1022.8 - 0.0
21/08:22pm 16.4 13.6 14.2 87 1.3 S 22 30 12 16 1022.8 - 0.0
21/08:00pm 16.5 14.0 14.0 85 1.4 S 20 26 11 14 1022.9 - 0.0
21/07:30pm 16.5 13.5 13.6 83 1.6 S 22 35 12 19 1022.3 - 0.0
21/07:00pm 16.7 12.9 13.6 82 1.7 S 26 35 14 19 1022.3 - 0.0
21/06:30pm 17.1 12.5 13.4 79 2.1 S 30 41 16 22 1022.0 - 0.0
21/06:00pm 17.4 12.4 13.3 77 2.3 S 32 44 17 24 1021.7 1021.7 0.0
21/05:41pm 17.8 13.5 13.1 74 2.6 SSE 28 46 15 25 1021.5 - 0.0
21/05:30pm 17.9 14.1 13.6 76 2.4 S 26 39 14 21 1021.5 - 0.0
21/05:01pm 18.1 13.5 13.6 75 2.6 S 30 48 16 26 1021.2 - 0.0
21/05:00pm 18.1 13.2 13.6 75 2.6 S 32 48 17 26 1021.2 - 0.0
21/04:30pm 18.1 13.0 13.8 76 2.4 S 33 44 18 24 1020.9 - 0.0
21/04:02pm 18.6 13.0 13.2 71 3.0 SSE 35 56 19 30 1020.6 - 0.0
21/04:00pm 18.6 12.8 12.8 69 3.3 SSE 35 50 19 27 1020.5 - 0.0
21/03:42pm 19.7 14.5 12.7 64 3.9 SSE 32 50 17 27 1020.3 - 0.0
21/03:30pm 18.8 13.3 12.5 67 3.5 SSE 33 46 18 25 1020.3 - 0.0
21/03:00pm 19.1 12.3 12.1 64 3.9 SSE 39 52 21 28 1020.1 1020.1 0.0
21/02:30pm 20.3 14.4 13.5 65 3.9 SSE 37 56 20 30 1020.4 - 0.0
21/02:09pm 20.5 15.0 12.5 60 4.5 SSE 33 52 18 28 1020.5 - 0.0
21/02:00pm 20.6 15.1 12.6 60 4.5 SSE 33 44 18 24 1020.5 - 0.0
21/01:42pm 20.6 15.1 12.6 60 4.5 SSE 33 52 18 28 1020.6 - 0.0
21/01:30pm 19.9 14.7 12.7 63 4.1 SSE 32 48 17 26 1021.0 - 0.0
21/01:24pm 19.5 14.1 12.3 63 4.0 SSE 32 50 17 27 1021.0 - 0.0
21/01:00pm 19.9 13.5 11.9 60 4.4 S 37 50 20 27 1021.0 - 0.0
21/12:49pm 20.4 14.9 11.9 58 4.7 SSE 32 50 17 27 1021.0 - 0.0
21/12:30pm 20.2 14.3 12.4 61 4.4 SSE 35 46 19 25 1021.5 - 0.0
21/12:00pm 20.1 14.3 12.8 63 4.1 SSE 35 44 19 24 1022.1 1022.1 0.0
21/11:36am 20.5 14.9 12.0 58 4.7 SSE 33 52 18 28 1022.2 - 0.0
21/11:30am 20.3 15.0 12.5 61 4.4 SSE 32 43 17 23 1022.2 - 0.0
21/11:00am 20.3 14.9 12.8 62 4.2 S 33 44 18 24 1022.7 - 0.0
21/10:30am 19.0 14.2 11.8 63 4.0 S 28 37 15 20 1022.9 - 0.0
21/10:00am 18.3 13.5 11.8 66 3.6 S 28 43 15 23 1023.0 - 0.0
21/09:30am 17.7 13.2 11.3 66 3.5 S 26 37 14 20 1023.0 - 0.0
21/09:00am 17.4 12.8 11.0 66 3.4 S 26 39 14 21 1023.1 1023.1 0.0
21/08:30am 17.0 12.2 10.4 65 3.5 S 26 35 14 19 1023.2 - 0.0
21/08:00am 16.6 12.7 10.7 68 3.1 S 22 33 12 18 1022.9 - 0.0
21/07:30am 15.7 11.8 10.7 72 2.7 S 22 32 12 17 1022.5 - 0.0
21/07:00am 14.5 11.0 10.1 75 2.3 S 19 30 10 16 1022.2 - 0.0
21/06:30am 14.1 10.9 9.9 76 2.2 SSW 17 24 9 13 1021.9 - 0.0
21/06:00am 14.4 11.2 10.0 75 2.3 SSW 17 24 9 13 1021.5 1021.5 0.0
21/05:30am 14.7 10.3 10.3 75 2.3 S 24 30 13 16 1021.0 - 0.0
21/05:00am 14.7 10.3 10.3 75 2.3 S 24 33 13 18 1020.7 - 0.0
21/04:30am 14.6 10.1 10.0 74 2.4 S 24 30 13 16 1020.7 - 0.0
21/04:00am 14.9 10.9 10.3 74 2.4 S 22 30 12 16 1020.7 - 0.0
21/03:30am 14.8 10.7 10.2 74 2.4 S 22 32 12 17 1020.6 - 0.0
21/03:00am 14.8 11.2 10.6 76 2.2 S 20 28 11 15 1020.8 1020.8 0.0
21/02:30am 14.8 12.0 11.2 79 1.9 SSW 17 24 9 13 1020.9 - 0.0
21/02:00am 15.0 11.9 11.6 80 1.8 S 19 26 10 14 1021.1 - 0.0
21/01:30am 15.2 12.1 11.6 79 1.9 SSW 19 24 10 13 1021.4 - 0.0
21/01:00am 15.5 12.4 11.7 78 2.1 SSW 19 24 10 13 1021.5 - 0.0
21/12:30am 15.4 12.8 12.0 80 1.8 SSW 17 24 9 13 1021.5 - 0.0
21/12:00am 15.8 13.3 12.4 80 1.9 SSW 17 24 9 13 1021.6 1021.6 0.0
 
Date/Time
EST
Tmp

°C
App
Tmp
°C
Dew
Point
°C
Rel
Hum
%
Delta-T

°C
Wind Press
QNH
hPa
Press
MSL
hPa
Rain
since
9 am
mm
Dir
 
Spd
km/h
Gust
km/h
Spd
kts
Gust
kts
20/11:30pm 16.1 13.4 12.8 81 1.8 S 19 28 10 15 1021.8 - 0.0

Latest Capital City Observations: Canberra | Sydney | Melbourne | Brisbane | Adelaide | Perth | Hobart | Darwin

Other Formats:

Comma delimited format used in spreadsheet applications
http://www.bom.gov.au/fwo/IDQ60901/IDQ60901.94569.axf

JavaScript Object Notation format (JSON) in row-major order
http://www.bom.gov.au/fwo/IDQ60901/IDQ60901.94569.json